Time;durP1;ratioP1;P1;durP2;ratioP2;P2;SDS_P1;SDS_P2;PMS_P1;PMS_P2;Temp;Humidity;BMP_temperature;BMP_pressure;BME280_temperature;BME280_humidity;BME280_pressure;Samples;Min_cycle;Max_cycle;Signal;HPM_P1;HPM_P2
2023/04/24 00:01:28;;;;;;;8.57;3.13;;;;;;;9.00;98.36;100125.00;6063715;19;20725;-70
2023/04/24 00:03:34;;;;;;;7.53;3.17;;;;;;;9.01;98.31;100129.31;6057771;19;20629;-70
2023/04/24 00:05:40;;;;;;;8.25;3.70;;;;;;;9.07;98.16;100124.72;6059693;19;20332;-70
2023/04/24 00:07:47;;;;;;;10.23;3.85;;;;;;;9.05;98.41;100114.28;6063720;19;20292;-70
2023/04/24 00:09:52;;;;;;;8.95;3.53;;;;;;;9.08;98.12;100127.25;6066776;19;20051;-71
2023/04/24 00:11:57;;;;;;;10.45;4.07;;;;;;;9.09;98.15;100131.59;6070057;19;20329;-70
2023/04/24 00:14:02;;;;;;;11.70;4.32;;;;;;;9.05;98.24;100132.63;6063783;19;20045;-69
2023/04/24 00:16:11;;;;;;;12.05;4.68;;;;;;;9.08;98.64;100131.66;6067199;19;20436;-69
2023/04/24 00:18:19;;;;;;;12.80;4.80;;;;;;;9.07;98.74;100129.97;6060435;19;20539;-69
2023/04/24 00:20:24;;;;;;;13.90;6.15;;;;;;;9.04;98.63;100133.56;6065167;19;20276;-71
2023/04/24 00:22:30;;;;;;;14.30;7.40;;;;;;;9.03;98.65;100129.25;6064813;19;20477;-71
2023/04/24 00:24:35;;;;;;;12.05;5.90;;;;;;;9.04;98.38;100133.56;6066254;19;20519;-71
2023/04/24 00:26:40;;;;;;;11.07;4.88;;;;;;;9.06;98.26;100136.97;6059889;19;20011;-71
2023/04/24 00:28:47;;;;;;;9.15;4.80;;;;;;;9.12;98.18;100143.72;6056898;19;20373;-70
2023/04/24 00:30:53;;;;;;;9.98;4.47;;;;;;;9.04;97.84;100140.59;6058780;19;20413;-71
2023/04/24 00:33:02;;;;;;;10.10;4.10;;;;;;;9.05;98.10;100134.41;6072187;19;20006;-71
2023/04/24 00:35:11;;;;;;;8.38;3.45;;;;;;;9.04;98.01;100133.56;6062104;19;20006;-70
2023/04/24 00:37:20;;;;;;;5.55;2.80;;;;;;;9.01;98.14;100129.31;6078196;19;20655;-71
2023/04/24 00:39:25;;;;;;;7.88;3.15;;;;;;;9.02;98.36;100133.63;6077200;19;20431;-70
2023/04/24 00:41:30;;;;;;;6.53;2.90;;;;;;;9.07;98.36;100133.44;6071693;19;20251;-71
2023/04/24 00:43:36;;;;;;;7.10;3.42;;;;;;;9.00;98.47;100132.88;6064490;19;20084;-70
2023/04/24 00:45:44;;;;;;;8.05;2.90;;;;;;;9.03;97.99;100137.13;6076247;19;20019;-70
2023/04/24 00:47:53;;;;;;;6.03;3.17;;;;;;;8.99;98.67;100132.94;6075569;19;20073;-70
2023/04/24 00:50:04;;;;;;;9.85;3.28;;;;;;;8.97;98.05;100129.53;6075341;19;20389;-69
2023/04/24 00:52:09;;;;;;;7.32;3.03;;;;;;;8.95;98.32;100136.59;6082403;19;20018;-70
2023/04/24 00:54:16;;;;;;;7.10;2.60;;;;;;;8.97;98.07;100132.13;6076407;19;20102;-69
2023/04/24 00:56:24;;;;;;;6.55;2.53;;;;;;;8.92;98.10;100134.13;6084829;19;20010;-69
2023/04/24 00:58:31;;;;;;;8.60;3.10;;;;;;;8.92;98.19;100140.19;6080112;19;20027;-69
2023/04/24 01:00:36;;;;;;;7.28;2.60;;;;;;;8.97;98.13;100138.22;6081630;19;20491;-69
2023/04/24 01:02:47;;;;;;;6.43;2.83;;;;;;;8.91;98.05;100138.50;6081800;19;20140;-69
2023/04/24 01:04:53;;;;;;;6.60;2.30;;;;;;;8.96;97.88;100135.69;6074481;19;20484;-72
2023/04/24 01:07:01;;;;;;;6.35;2.30;;;;;;;8.85;98.00;100127.47;6088297;19;20058;-73
2023/04/24 01:09:06;;;;;;;4.80;2.00;;;;;;;8.87;97.60;100138.72;6070890;19;20006;-72
2023/04/24 01:11:12;;;;;;;7.03;2.50;;;;;;;8.85;97.77;100132.72;6077625;19;20328;-72
2023/04/24 01:13:19;;;;;;;5.55;2.10;;;;;;;8.79;97.76;100137.31;6070845;19;20366;-72
2023/04/24 01:15:25;;;;;;;4.10;1.88;;;;;;;8.88;97.63;100140.44;6060931;19;20238;-72
2023/04/24 01:17:31;;;;;;;3.60;1.73;;;;;;;8.82;98.00;100132.81;6067746;19;20011;-72
2023/04/24 01:19:36;;;;;;;5.13;2.42;;;;;;;8.83;97.83;100130.16;6065357;19;20231;-72
2023/04/24 01:21:43;;;;;;;5.38;2.72;;;;;;;8.82;98.36;100132.81;6069950;19;20009;-72
2023/04/24 01:23:54;;;;;;;5.40;2.72;;;;;;;8.81;98.09;100128.50;6069031;19;20471;-72
2023/04/24 01:25:59;;;;;;;5.65;2.90;;;;;;;8.89;97.73;100129.03;6065477;19;20022;-73
2023/04/24 01:28:05;;;;;;;5.60;2.17;;;;;;;8.86;97.40;100130.00;6059236;19;20307;-72
2023/04/24 01:30:11;;;;;;;4.63;2.08;;;;;;;8.74;97.13;100131.41;6076731;19;20753;-72
2023/04/24 01:32:19;;;;;;;4.95;2.22;;;;;;;8.77;97.23;100133.91;6073881;19;20366;-72
2023/04/24 01:34:24;;;;;;;3.33;1.90;;;;;;;8.79;97.14;100134.69;6081349;19;20014;-73
2023/04/24 01:36:31;;;;;;;3.85;2.00;;;;;;;8.83;97.27;100139.78;6059133;19;20175;-72
2023/04/24 01:38:38;;;;;;;3.45;1.55;;;;;;;8.81;96.99;100131.97;6067480;19;20545;-73
2023/04/24 01:40:46;;;;;;;3.58;1.77;;;;;;;8.72;97.11;100133.25;6061137;19;22280;-72
2023/04/24 01:42:54;;;;;;;1.58;1.45;;;;;;;8.79;97.09;100133.81;6074161;19;20440;-72
2023/04/24 01:45:00;;;;;;;1.92;1.40;;;;;;;8.69;97.35;100138.63;6072303;19;20011;-72
2023/04/24 01:47:05;;;;;;;3.38;1.60;;;;;;;8.62;97.46;100131.94;6067898;19;20440;-72
2023/04/24 01:49:10;;;;;;;4.00;1.80;;;;;;;8.66;97.74;100130.91;6064106;19;20025;-73
2023/04/24 01:51:16;;;;;;;2.58;1.65;;;;;;;8.74;97.96;100133.16;6066610;19;20058;-72
2023/04/24 01:53:24;;;;;;;2.55;1.45;;;;;;;8.70;97.64;100127.22;6067037;19;20010;-72
2023/04/24 01:55:29;;;;;;;2.25;1.60;;;;;;;8.71;97.56;100126.28;6068584;19;20492;-72
2023/04/24 01:57:38;;;;;;;4.07;1.80;;;;;;;8.72;97.91;100129.78;6057936;19;20452;-68
2023/04/24 01:59:43;;;;;;;5.47;1.85;;;;;;;8.64;97.78;100126.66;6074138;19;20522;-69
2023/04/24 02:01:48;;;;;;;4.75;2.13;;;;;;;8.68;97.52;100133.44;6068331;19;20325;-68
2023/04/24 02:03:53;;;;;;;5.45;1.90;;;;;;;8.65;97.56;100133.59;6074808;19;20354;-69
2023/04/24 02:05:58;;;;;;;3.83;2.13;;;;;;;8.69;97.94;100128.16;6079020;19;20445;-68
2023/04/24 02:08:03;;;;;;;4.80;1.83;;;;;;;8.60;98.02;100118.06;6072839;19;20069;-69
2023/04/24 02:10:10;;;;;;;6.40;2.28;;;;;;;8.60;98.08;100127.69;6074072;19;20459;-69
2023/04/24 02:12:20;;;;;;;3.58;1.90;;;;;;;8.61;98.13;100117.16;6084352;19;20039;-69
2023/04/24 02:14:28;;;;;;;4.15;2.10;;;;;;;8.69;97.89;100124.66;6089452;19;20007;-69
2023/04/24 02:16:35;;;;;;;4.95;2.25;;;;;;;8.69;97.94;100124.66;6082884;19;20010;-69
2023/04/24 02:18:41;;;;;;;4.55;2.33;;;;;;;8.67;97.82;100123.91;6086677;19;20014;-71
2023/04/24 02:20:47;;;;;;;4.78;2.13;;;;;;;8.66;97.66;100120.44;6078551;19;20006;-68
2023/04/24 02:22:54;;;;;;;6.35;2.53;;;;;;;8.61;98.04;100114.53;6082802;19;20003;-71
2023/04/24 02:25:00;;;;;;;5.32;2.50;;;;;;;8.58;98.00;100127.75;6085050;19;20007;-68
2023/04/24 02:27:05;;;;;;;4.80;2.20;;;;;;;8.61;98.36;100127.63;6080449;19;20249;-70
2023/04/24 02:29:10;;;;;;;6.15;2.60;;;;;;;8.60;98.37;100135.56;6084008;19;20022;-70
2023/04/24 02:31:22;;;;;;;5.93;2.60;;;;;;;8.61;98.41;100137.25;6083756;19;20279;-70
2023/04/24 02:33:28;;;;;;;7.57;3.40;;;;;;;8.50;98.65;100129.84;6080131;19;20276;-70
2023/04/24 02:35:33;;;;;;;8.50;3.42;;;;;;;8.53;98.81;100125.34;6064614;19;20023;-71
2023/04/24 02:37:39;;;;;;;8.85;3.35;;;;;;;8.57;98.59;100133.91;6091008;19;20010;-69
2023/04/24 02:39:44;;;;;;;6.72;3.10;;;;;;;8.60;98.75;100139.00;6087283;19;20033;-71
2023/04/24 02:41:49;;;;;;;7.13;3.30;;;;;;;8.62;98.78;100128.47;6089235;19;20017;-71
2023/04/24 02:43:54;;;;;;;5.82;2.47;;;;;;;8.61;98.27;100134.63;6083862;19;20014;-70
2023/04/24 02:45:59;;;;;;;5.97;2.33;;;;;;;8.60;98.01;100131.16;6084958;19;20079;-71
2023/04/24 02:48:08;;;;;;;9.00;2.63;;;;;;;8.51;97.20;100136.81;6078512;19;20014;-69
2023/04/24 02:50:13;;;;;;;3.63;2.03;;;;;;;8.49;97.45;100136.88;6082779;19;20439;-70
2023/04/24 02:52:19;;;;;;;4.15;2.13;;;;;;;8.47;96.74;100132.59;6084588;19;20020;-70
2023/04/24 02:54:25;;;;;;;2.55;1.58;;;;;;;8.49;97.15;100136.88;6083946;19;20022;-70
2023/04/24 02:56:30;;;;;;;3.95;1.63;;;;;;;8.41;97.14;100131.09;6077123;19;20298;-70
2023/04/24 02:58:35;;;;;;;2.35;1.30;;;;;;;8.39;96.63;100135.56;6077786;19;20042;-69
2023/04/24 03:00:40;;;;;;;2.33;1.48;;;;;;;8.37;96.51;100137.34;6076129;19;20311;-70
2023/04/24 03:02:47;;;;;;;4.13;1.48;;;;;;;8.30;96.45;100142.00;6078526;19;20569;-70
2023/04/24 03:04:56;;;;;;;3.00;1.50;;;;;;;8.31;96.69;100138.47;6074242;19;20115;-69
2023/04/24 03:07:02;;;;;;;3.67;1.63;;;;;;;8.30;96.77;100142.00;6085219;19;20037;-69
2023/04/24 03:09:07;;;;;;;4.22;1.80;;;;;;;8.31;97.46;100143.69;6081772;19;20491;-69
2023/04/24 03:11:13;;;;;;;4.57;1.73;;;;;;;8.28;97.39;100149.06;6084525;19;20093;-70
2023/04/24 03:13:21;;;;;;;3.38;1.52;;;;;;;8.26;97.62;100144.81;6089326;19;20006;-70
2023/04/24 03:15:29;;;;;;;3.47;1.90;;;;;;;8.32;97.59;100144.53;6081955;19;20025;-70
2023/04/24 03:17:35;;;;;;;5.32;1.70;;;;;;;8.33;97.69;100146.25;6053777;19;20030;-71
2023/04/24 03:19:43;;;;;;;3.65;1.95;;;;;;;8.27;97.95;100152.63;6071434;19;20296;-70
2023/04/24 03:21:54;;;;;;;4.93;1.90;;;;;;;8.25;97.93;100143.13;6078058;19;20184;-70
2023/04/24 03:24:00;;;;;;;3.97;1.67;;;;;;;8.31;98.20;100138.47;6070497;19;20557;-70
2023/04/24 03:26:08;;;;;;;2.03;1.58;;;;;;;8.29;98.56;100132.47;6073603;19;20481;-70
2023/04/24 03:28:15;;;;;;;5.13;1.90;;;;;;;8.29;98.41;100135.09;6077425;19;20066;-70
2023/04/24 03:30:24;;;;;;;4.82;1.80;;;;;;;8.31;98.53;100132.38;6080202;19;20010;-70
2023/04/24 03:32:30;;;;;;;3.38;1.80;;;;;;;8.27;98.75;100133.44;6073768;19;20006;-70
2023/04/24 03:34:35;;;;;;;5.75;1.70;;;;;;;8.30;98.46;100130.69;6078156;19;20608;-71
2023/04/24 03:36:40;;;;;;;3.50;1.80;;;;;;;8.33;98.51;100133.16;6088103;19;20639;-70
2023/04/24 03:38:51;;;;;;;3.33;1.83;;;;;;;8.30;98.00;100136.78;6061169;19;20546;-70
2023/04/24 03:40:56;;;;;;;5.15;2.30;;;;;;;8.23;98.35;100145.78;6063998;19;20098;-71
2023/04/24 03:43:01;;;;;;;3.05;2.00;;;;;;;8.24;98.24;100147.50;6075383;19;20010;-70
2023/04/24 03:45:07;;;;;;;3.25;1.60;;;;;;;8.23;98.00;100145.78;6080201;19;20231;-70
2023/04/24 03:47:12;;;;;;;2.83;1.58;;;;;;;8.23;98.60;100148.41;6058241;19;20417;-70
2023/04/24 03:49:18;;;;;;;4.10;1.90;;;;;;;8.24;98.21;100147.50;6072383;19;20899;-70
2023/04/24 03:51:27;;;;;;;4.25;1.52;;;;;;;8.21;98.60;100147.63;6081095;19;20073;-69
2023/04/24 03:53:32;;;;;;;5.15;1.90;;;;;;;8.24;98.25;100147.50;6077421;19;20303;-70
2023/04/24 03:55:40;;;;;;;5.07;2.40;;;;;;;8.25;98.65;100150.97;6079093;19;20014;-70
2023/04/24 03:57:47;;;;;;;2.75;1.67;;;;;;;8.27;98.82;100146.53;6069896;19;20015;-69
2023/04/24 03:59:53;;;;;;;4.32;1.63;;;;;;;8.28;99.17;100143.84;6073691;19;20526;-69
2023/04/24 04:01:58;;;;;;;2.03;1.67;;;;;;;8.29;98.95;100148.16;6075777;19;20551;-70
2023/04/24 04:04:04;;;;;;;2.83;1.80;;;;;;;8.28;98.84;100158.69;6074720;19;20464;-70
2023/04/24 04:06:11;;;;;;;3.63;1.95;;;;;;;8.25;98.76;100162.28;6066597;19;20021;-70
2023/04/24 04:08:19;;;;;;;1.95;1.65;;;;;;;8.21;99.10;100165.94;6066387;19;20476;-71
2023/04/24 04:10:24;;;;;;;4.95;1.80;;;;;;;8.22;99.19;100170.28;6061822;19;20767;-70
2023/04/24 04:12:32;;;;;;;4.38;1.58;;;;;;;8.27;99.06;100159.63;6061560;19;20565;-71
2023/04/24 04:14:39;;;;;;;2.95;1.90;;;;;;;8.29;99.61;100165.63;6065159;19;20082;-71
2023/04/24 04:16:45;;;;;;;7.53;2.60;;;;;;;8.30;99.21;100168.19;6055018;19;20021;-71
2023/04/24 04:18:51;;;;;;;5.57;1.80;;;;;;;8.29;99.38;100161.25;6062086;19;20676;-70
2023/04/24 04:20:57;;;;;;;3.47;1.98;;;;;;;8.34;99.15;100174.13;6056969;19;20094;-70
2023/04/24 04:23:02;;;;;;;6.68;2.47;;;;;;;8.30;99.12;100177.81;6051865;19;20006;-69
2023/04/24 04:25:08;;;;;;;3.97;1.92;;;;;;;8.33;99.44;100178.53;6064897;19;20527;-69
2023/04/24 04:27:13;;;;;;;6.38;1.98;;;;;;;8.42;98.97;100194.78;6063861;19;20006;-69
2023/04/24 04:29:22;;;;;;;6.80;2.85;;;;;;;8.44;99.07;100190.34;6061858;19;20006;-69
2023/04/24 04:31:28;;;;;;;3.60;2.00;;;;;;;8.47;98.99;100198.06;6065491;19;20007;-69
2023/04/24 04:33:33;;;;;;;8.00;2.80;;;;;;;8.48;99.26;100199.78;6040406;19;20258;-69
2023/04/24 04:35:39;;;;;;;6.40;2.97;;;;;;;8.41;99.28;100201.78;6062190;19;20360;-69
2023/04/24 04:37:45;;;;;;;11.32;3.75;;;;;;;8.41;99.10;100208.81;6064387;19;20250;-69
2023/04/24 04:39:57;;;;;;;10.25;4.43;;;;;;;8.31;99.04;100217.00;6068077;19;20021;-69
2023/04/24 04:42:03;;;;;;;10.45;4.53;;;;;;;8.31;98.88;100221.38;6072973;19;20014;-70
2023/04/24 04:44:09;;;;;;;11.68;5.07;;;;;;;8.28;98.83;100232.00;6072553;19;20277;-70
2023/04/24 04:46:18;;;;;;;12.25;5.70;;;;;;;8.28;98.87;100234.59;6066967;19;20230;-69
2023/04/24 04:48:23;;;;;;;8.82;4.72;;;;;;;8.26;98.90;100250.34;6066760;19;20033;-69
2023/04/24 04:50:31;;;;;;;8.18;4.07;;;;;;;8.26;98.95;100252.97;6076473;19;20065;-70
2023/04/24 04:52:36;;;;;;;14.60;4.55;;;;;;;8.25;98.56;100256.53;6066299;19;20018;-69
2023/04/24 04:54:41;;;;;;;11.73;5.30;;;;;;;8.20;98.61;100261.09;6070716;19;20009;-69
2023/04/24 04:56:49;;;;;;;15.85;6.22;;;;;;;8.14;98.09;100269.19;6062637;19;20015;-69
2023/04/24 04:58:55;;;;;;;15.00;6.97;;;;;;;8.04;97.61;100263.47;6069415;19;20205;-69
2023/04/24 05:01:00;;;;;;;18.02;7.88;;;;;;;8.01;98.12;100281.91;6073124;19;20021;-69
2023/04/24 05:03:07;;;;;;;18.92;8.32;;;;;;;8.00;98.33;100298.50;6072085;19;20480;-69
2023/04/24 05:05:24;;;;;;;24.00;9.57;;;;;;;7.95;97.79;100289.13;6071501;19;20050;-69
2023/04/24 05:07:32;;;;;;;25.45;11.60;;;;;;;7.95;98.06;100312.66;6071004;19;20011;-69
2023/04/24 05:09:37;;;;;;;29.83;11.70;;;;;;;7.91;97.58;100304.09;6069981;19;20478;-70
2023/04/24 05:11:42;;;;;;;24.15;11.93;;;;;;;7.89;97.31;100319.84;6069296;19;20567;-69
2023/04/24 05:13:49;;;;;;;28.75;14.82;;;;;;;7.89;97.01;100318.97;6061013;19;20006;-70
2023/04/24 05:15:55;;;;;;;27.92;13.07;;;;;;;7.88;97.35;100323.38;6057843;19;20658;-70
2023/04/24 05:18:02;;;;;;;26.65;12.57;;;;;;;7.87;97.85;100337.38;6036281;19;20018;-70
2023/04/24 05:20:11;;;;;;;22.70;11.38;;;;;;;7.84;98.11;100334.00;6056747;19;20007;-70
2023/04/24 05:22:18;;;;;;;21.27;10.55;;;;;;;7.87;97.53;100339.09;6060444;19;20027;-70
2023/04/24 05:24:23;;;;;;;27.35;10.70;;;;;;;7.86;98.14;100346.13;6055960;19;20022;-69
2023/04/24 05:26:29;;;;;;;25.42;11.23;;;;;;;7.88;97.67;100352.16;6055442;19;20199;-69
2023/04/24 05:28:40;;;;;;;24.02;11.63;;;;;;;7.90;98.05;100359.94;6051843;19;20022;-69
2023/04/24 05:30:47;;;;;;;26.02;12.20;;;;;;;7.87;97.92;100374.00;6059583;19;20015;-69
2023/04/24 05:32:55;;;;;;;30.77;13.57;;;;;;;7.83;97.03;100374.16;6057972;19;20015;-69
2023/04/24 05:35:03;;;;;;;26.75;10.10;;;;;;;7.79;96.69;100388.25;6054709;19;20038;-69
2023/04/24 05:37:11;;;;;;;28.60;12.10;;;;;;;7.78;96.59;100389.16;6057991;19;20305;-71
2023/04/24 05:39:19;;;;;;;31.17;12.02;;;;;;;7.76;95.58;100402.28;6057359;19;20022;-70
2023/04/24 05:41:24;;;;;;;23.63;11.48;;;;;;;7.74;95.35;100405.88;6056988;19;20278;-69
2023/04/24 05:43:31;;;;;;;27.83;11.80;;;;;;;7.73;96.17;100410.25;6068798;19;20086;-70
2023/04/24 05:45:37;;;;;;;30.50;10.70;;;;;;;7.74;96.48;100409.34;6065280;19;20391;-70
2023/04/24 05:47:44;;;;;;;33.22;12.77;;;;;;;7.72;95.38;100415.56;6055262;19;20010;-70
2023/04/24 05:49:52;;;;;;;32.30;11.90;;;;;;;7.74;95.94;100424.16;6056314;19;20636;-69
2023/04/24 05:51:57;;;;;;;23.75;10.35;;;;;;;7.75;96.35;100428.50;6069868;19;20038;-70
2023/04/24 05:54:05;;;;;;;26.73;11.52;;;;;;;7.74;96.00;100424.16;6060822;19;20385;-70
2023/04/24 05:56:11;;;;;;;24.95;10.57;;;;;;;7.75;96.48;100426.75;6052961;19;20652;-69
2023/04/24 05:58:22;;;;;;;26.50;11.10;;;;;;;7.81;96.69;100439.59;6056013;19;20011;-72
2023/04/24 06:00:29;;;;;;;20.55;9.85;;;;;;;7.80;97.03;100445.75;6055381;19;20269;-70
2023/04/24 06:02:34;;;;;;;25.85;10.27;;;;;;;7.80;96.91;100450.97;6052850;19;20678;-71
2023/04/24 06:04:41;;;;;;;29.95;10.52;;;;;;;7.81;96.91;100470.97;6059825;19;20082;-71
2023/04/24 06:06:55;;;;;;;29.20;10.45;;;;;;;7.79;97.10;100467.56;6051080;19;20051;-69
2023/04/24 06:09:05;;;;;;;31.50;10.30;;;;;;;7.82;96.84;100472.72;6057149;19;20524;-69
2023/04/24 06:11:10;;;;;;;25.05;8.43;;;;;;;7.82;94.84;100480.56;6054679;19;20443;-69
2023/04/24 06:13:22;;;;;;;31.38;9.70;;;;;;;7.81;95.38;100484.06;6049819;19;20565;-69
2023/04/24 06:15:31;;;;;;;21.65;8.98;;;;;;;7.82;95.44;100498.00;6061578;19;20014;-70
2023/04/24 06:17:39;;;;;;;17.83;6.82;;;;;;;7.81;95.27;100502.38;6053764;19;20278;-70
2023/04/24 06:19:46;;;;;;;24.88;7.70;;;;;;;7.80;95.37;100505.06;6056164;19;20370;-70
2023/04/24 06:21:54;;;;;;;21.63;7.88;;;;;;;7.79;95.13;100508.56;6056098;19;20029;-69
2023/04/24 06:24:01;;;;;;;24.67;7.82;;;;;;;7.80;95.23;100524.22;6050794;19;20345;-69
2023/04/24 06:26:14;;;;;;;19.92;7.60;;;;;;;7.80;94.76;100519.00;6057954;19;20405;-70
2023/04/24 06:28:26;;;;;;;20.42;6.72;;;;;;;7.79;94.05;100532.97;6057501;19;20422;-70
2023/04/24 06:30:32;;;;;;;29.63;7.32;;;;;;;7.80;94.40;100531.22;6055300;19;20006;-69
2023/04/24 06:32:37;;;;;;;22.85;6.95;;;;;;;7.80;93.40;100532.06;6060343;19;20507;-70
2023/04/24 06:34:42;;;;;;;16.05;6.63;;;;;;;7.80;93.31;100549.53;6063000;19;20338;-70
2023/04/24 06:36:51;;;;;;;17.65;6.40;;;;;;;7.88;93.91;100557.97;6068098;19;20021;-70
2023/04/24 06:38:57;;;;;;;22.67;6.50;;;;;;;7.87;93.44;100551.88;6070117;19;20368;-69
2023/04/24 06:41:03;;;;;;;21.17;6.80;;;;;;;7.87;93.69;100556.25;6066167;19;20085;-69
2023/04/24 06:43:10;;;;;;;20.52;6.18;;;;;;;7.88;93.68;100564.06;6064790;19;20682;-69
2023/04/24 06:45:19;;;;;;;16.38;6.38;;;;;;;7.86;93.43;100562.41;6058912;19;20090;-69
2023/04/24 06:47:25;;;;;;;18.08;6.13;;;;;;;7.89;94.60;100575.38;6061253;19;20043;-69
2023/04/24 06:49:30;;;;;;;27.38;7.05;;;;;;;7.87;94.04;100577.16;6059917;19;20045;-69
2023/04/24 06:51:36;;;;;;;15.07;5.63;;;;;;;7.90;92.92;100580.56;6057046;19;20200;-68
2023/04/24 06:53:43;;;;;;;16.00;5.43;;;;;;;7.97;92.57;100580.34;6064798;19;20014;-69
2023/04/24 06:55:51;;;;;;;21.70;5.47;;;;;;;7.94;92.73;100578.69;6057523;19;20046;-69
2023/04/24 06:57:56;;;;;;;17.77;5.07;;;;;;;7.96;93.20;100587.34;6061114;19;20238;-69
2023/04/24 07:00:06;;;;;;;17.40;5.88;;;;;;;7.96;92.23;100603.03;6058164;19;20018;-69
2023/04/24 07:02:11;;;;;;;17.10;5.93;;;;;;;7.94;92.60;100604.00;6064356;19;20033;-69
2023/04/24 07:04:19;;;;;;;13.43;5.03;;;;;;;7.91;92.40;100611.03;6063179;19;20343;-69
2023/04/24 07:06:25;;;;;;;18.70;6.20;;;;;;;7.91;92.75;100613.66;6056521;19;20010;-70
2023/04/24 07:08:30;;;;;;;19.38;5.10;;;;;;;7.86;92.90;100623.41;6065238;19;20490;-69
2023/04/24 07:10:36;;;;;;;14.02;4.18;;;;;;;7.80;92.64;100621.00;6064652;19;20090;-69
2023/04/24 07:12:44;;;;;;;16.25;4.97;;;;;;;7.79;92.51;100626.28;6061348;19;20484;-69
2023/04/24 07:14:49;;;;;;;18.38;4.78;;;;;;;7.79;92.35;100627.13;6063079;19;20222;-69
2023/04/24 07:16:57;;;;;;;28.60;5.07;;;;;;;7.79;93.40;100636.75;6059657;19;20010;-69
2023/04/24 07:19:02;;;;;;;17.17;4.70;;;;;;;7.77;92.67;100642.03;6055436;19;20409;-69
2023/04/24 07:21:07;;;;;;;22.88;4.35;;;;;;;7.81;91.58;100648.88;6058736;19;20006;-72
2023/04/24 07:23:13;;;;;;;13.00;3.70;;;;;;;7.84;91.70;100656.59;6056994;19;20524;-69
2023/04/24 07:25:19;;;;;;;23.95;4.55;;;;;;;7.87;90.83;100653.91;6057268;19;20418;-69
2023/04/24 07:27:25;;;;;;;22.33;4.72;;;;;;;7.91;91.38;100655.50;6065306;19;20217;-70
2023/04/24 07:29:30;;;;;;;18.38;4.47;;;;;;;7.95;90.45;100660.66;6042321;19;20031;-69
2023/04/24 07:31:38;;;;;;;21.95;4.45;;;;;;;7.97;90.37;100670.16;6049582;19;20328;-70
2023/04/24 07:33:48;;;;;;;14.05;3.78;;;;;;;7.93;88.92;100665.09;6054827;19;20094;-69
2023/04/24 07:35:53;;;;;;;13.93;4.53;;;;;;;7.93;88.02;100675.56;6054381;19;20033;-69
2023/04/24 07:38:00;;;;;;;11.52;3.25;;;;;;;7.89;87.55;100672.16;6057116;19;20525;-69
2023/04/24 07:40:06;;;;;;;10.35;4.00;;;;;;;7.89;88.73;100691.34;6056951;19;20002;-69
2023/04/24 07:42:11;;;;;;;11.93;3.60;;;;;;;7.94;89.32;100692.97;6057897;19;20139;-69
2023/04/24 07:44:19;;;;;;;13.50;3.42;;;;;;;7.94;88.50;100682.50;6061444;19;20023;-69
2023/04/24 07:46:26;;;;;;;14.90;4.50;;;;;;;7.96;87.60;100680.69;6063010;19;20050;-69
2023/04/24 07:48:31;;;;;;;16.52;3.92;;;;;;;7.98;88.73;100700.66;6062822;19;20203;-69
2023/04/24 07:50:41;;;;;;;17.30;3.70;;;;;;;8.04;87.80;100699.63;6064490;19;20453;-69
2023/04/24 07:52:48;;;;;;;11.65;3.63;;;;;;;8.02;87.46;100707.50;6062795;19;20335;-69
2023/04/24 07:54:58;;;;;;;17.40;4.22;;;;;;;8.00;86.85;100708.44;6063316;19;20676;-69
2023/04/24 07:57:03;;;;;;;16.00;4.05;;;;;;;8.01;87.04;100715.41;6064011;19;20021;-69
2023/04/24 07:59:09;;;;;;;11.68;4.00;;;;;;;8.06;87.58;100708.28;6059197;19;20104;-69
2023/04/24 08:01:14;;;;;;;11.90;3.78;;;;;;;8.05;83.05;100715.25;6059154;19;20122;-69
2023/04/24 08:03:23;;;;;;;10.70;4.72;;;;;;;8.05;84.63;100717.00;6065399;19;20238;-68
2023/04/24 08:05:29;;;;;;;10.63;3.72;;;;;;;8.02;82.25;100724.97;6065902;19;20013;-68
2023/04/24 08:07:37;;;;;;;9.07;3.25;;;;;;;7.99;82.82;100730.31;6057133;19;20224;-68
2023/04/24 08:09:44;;;;;;;14.23;3.92;;;;;;;7.97;83.42;100732.09;6060012;19;20026;-68
2023/04/24 08:11:50;;;;;;;14.20;3.50;;;;;;;7.96;83.11;100739.09;6057472;19;20010;-68
2023/04/24 08:13:56;;;;;;;17.85;3.92;;;;;;;7.96;83.94;100741.72;6068749;19;20520;-68
2023/04/24 08:16:01;;;;;;;13.45;4.88;;;;;;;7.92;84.21;100729.63;6062644;19;20296;-68
2023/04/24 08:18:06;;;;;;;14.70;3.50;;;;;;;7.95;84.21;100747.00;6057248;19;20129;-69
2023/04/24 08:20:14;;;;;;;12.82;4.57;;;;;;;7.98;84.93;100754.75;6063799;19;20309;-68
2023/04/24 08:22:22;;;;;;;12.35;4.45;;;;;;;8.02;83.27;100751.13;6061377;19;20530;-68
2023/04/24 08:24:30;;;;;;;10.73;4.60;;;;;;;8.05;83.60;100759.72;6057561;19;20823;-68
2023/04/24 08:26:35;;;;;;;10.90;2.95;;;;;;;8.11;80.21;100763.94;6055099;19;20441;-68
2023/04/24 08:28:40;;;;;;;9.48;3.53;;;;;;;8.10;80.61;100767.44;6057140;19;20023;-68
2023/04/24 08:30:45;;;;;;;8.88;3.20;;;;;;;8.15;79.29;100776.03;6065728;19;20603;-68
2023/04/24 08:32:51;;;;;;;12.75;3.38;;;;;;;8.21;79.46;100774.97;6055900;19;20018;-68
2023/04/24 08:34:56;;;;;;;11.13;3.08;;;;;;;8.17;76.49;100782.06;6071673;19;20002;-69
2023/04/24 08:37:01;;;;;;;8.07;2.90;;;;;;;8.18;78.33;100782.91;6056012;19;20014;-71
2023/04/24 08:39:06;;;;;;;11.65;3.88;;;;;;;8.11;78.71;100795.34;6065577;19;20269;-68
2023/04/24 08:41:14;;;;;;;5.90;2.72;;;;;;;8.14;80.06;100808.34;6067583;19;20010;-68
2023/04/24 08:43:25;;;;;;;11.48;3.33;;;;;;;8.05;80.47;100804.22;6067108;19;20019;-68
2023/04/24 08:45:30;;;;;;;10.18;2.53;;;;;;;7.98;79.20;100801.84;6070444;19;20008;-67
2023/04/24 08:47:37;;;;;;;8.85;2.95;;;;;;;7.95;79.38;100809.78;6077460;19;20036;-68
2023/04/24 08:49:42;;;;;;;7.85;2.60;;;;;;;7.95;79.01;100809.78;6068461;19;20147;-69
2023/04/24 08:51:49;;;;;;;10.43;2.80;;;;;;;7.98;79.86;100812.31;6058418;19;20350;-68
2023/04/24 08:53:57;;;;;;;7.53;3.40;;;;;;;7.99;79.01;100811.41;6068717;19;20023;-67
2023/04/24 08:56:04;;;;;;;8.02;2.95;;;;;;;8.05;78.29;100814.69;6084598;19;20015;-68
2023/04/24 08:58:12;;;;;;;6.30;2.47;;;;;;;8.10;77.82;100812.78;6062805;19;20046;-68
2023/04/24 09:00:23;;;;;;;7.82;2.22;;;;;;;8.13;78.74;100810.06;6062273;19;20021;-67
2023/04/24 09:02:29;;;;;;;8.23;2.85;;;;;;;8.00;78.24;100818.34;6059736;19;20467;-67
2023/04/24 09:04:36;;;;;;;12.40;2.88;;;;;;;7.97;79.84;100826.31;6062085;19;20006;-68
2023/04/24 09:06:42;;;;;;;9.15;2.50;;;;;;;7.95;80.31;100821.09;6061481;19;20299;-68
2023/04/24 09:08:49;;;;;;;9.68;3.10;;;;;;;7.89;82.10;100827.38;6058733;19;20038;-68
2023/04/24 09:10:54;;;;;;;5.50;2.47;;;;;;;7.94;83.97;100836.88;6060629;19;20616;-68
2023/04/24 09:13:02;;;;;;;6.88;2.42;;;;;;;7.76;82.40;100840.88;6058193;19;20310;-68
2023/04/24 09:15:11;;;;;;;10.00;2.35;;;;;;;7.84;84.36;100842.34;6058221;19;20010;-68
2023/04/24 09:17:18;;;;;;;10.60;2.53;;;;;;;7.98;84.67;100841.97;6059170;19;20014;-68
2023/04/24 09:19:23;;;;;;;7.72;2.97;;;;;;;8.05;83.93;100843.47;6059055;19;20264;-69
2023/04/24 09:21:37;;;;;;;7.00;2.72;;;;;;;8.03;82.35;100836.59;6059945;19;20051;-68
2023/04/24 09:23:42;;;;;;;6.35;2.17;;;;;;;8.25;82.55;100839.41;6049969;19;20019;-67
2023/04/24 09:25:48;;;;;;;7.43;2.03;;;;;;;8.30;83.07;100838.38;6054450;19;20007;-67
2023/04/24 09:27:56;;;;;;;7.03;2.30;;;;;;;8.33;81.05;100848.75;6055869;19;20290;-67
2023/04/24 09:30:02;;;;;;;7.93;2.20;;;;;;;8.48;82.35;100841.38;6060450;19;20515;-67
2023/04/24 09:32:26;;;;;;;5.82;2.00;;;;;;;8.67;81.87;100844.25;6057452;19;20686;-67
2023/04/24 09:34:31;;;;;;;4.47;2.03;;;;;;;8.90;82.02;100848.69;6056910;19;20405;-69
2023/04/24 09:36:37;;;;;;;6.97;1.88;;;;;;;9.02;79.47;100848.28;6063571;19;20025;-67
2023/04/24 09:38:42;;;;;;;5.40;2.30;;;;;;;9.15;79.82;100860.06;6059151;19;20178;-67
2023/04/24 09:40:49;;;;;;;5.55;2.40;;;;;;;9.17;78.43;100850.41;6060716;19;20250;-67
2023/04/24 09:42:56;;;;;;;9.52;2.38;;;;;;;9.12;77.61;100864.56;6059816;19;20184;-68
2023/04/24 09:45:01;;;;;;;6.97;2.10;;;;;;;9.12;78.60;100865.44;6053230;19;20010;-67
2023/04/24 09:47:22;;;;;;;7.25;1.92;;;;;;;8.97;78.21;100866.78;6058212;19;20214;-68
2023/04/24 09:49:33;;;;;;;5.72;2.08;;;;;;;9.08;78.40;100862.94;6077698;19;20010;-68
2023/04/24 09:51:40;;;;;;;7.95;1.98;;;;;;;9.03;76.23;100881.47;6071846;19;20591;-68
2023/04/24 09:53:55;;;;;;;5.72;2.20;;;;;;;9.12;77.83;100891.66;6053002;19;20015;-67